createdAt,value
2023-05-09T00:01:13.193Z,91.40
2023-05-09T00:03:43.261Z,92.30
2023-05-09T00:06:11.698Z,93.10
2023-05-09T00:08:39.112Z,93.70
2023-05-09T00:11:06.463Z,94.00
2023-05-09T00:13:34.850Z,94.30
2023-05-09T00:16:02.530Z,94.00
2023-05-09T00:18:31.371Z,94.80
2023-05-09T00:20:58.870Z,94.40
2023-05-09T00:23:26.174Z,94.60
2023-05-09T00:25:53.501Z,94.60
2023-05-09T00:28:20.935Z,94.60
2023-05-09T00:30:48.226Z,94.80
2023-05-09T00:33:15.550Z,94.80
2023-05-09T00:35:42.834Z,95.30
2023-05-09T00:38:10.227Z,95.40
2023-05-09T00:40:37.504Z,95.80
2023-05-09T00:43:05.285Z,96.50
2023-05-09T00:45:32.594Z,97.50
2023-05-09T00:48:00.193Z,97.60
2023-05-09T00:50:27.655Z,97.80
2023-05-09T00:52:55.278Z,98.10
2023-05-09T00:55:23.426Z,98.30
2023-05-09T00:57:51.027Z,98.90
2023-05-09T01:00:19.066Z,99.70
2023-05-09T01:02:55.282Z,99.50
2023-05-09T01:05:30.069Z,99.90
2023-05-09T01:08:10.559Z,99.90
2023-05-09T01:11:01.434Z,99.90
2023-05-09T01:13:54.679Z,99.90
2023-05-09T01:16:41.064Z,99.90
2023-05-09T01:19:38.730Z,99.90
2023-05-09T01:22:11.656Z,99.90
2023-05-09T01:25:07.459Z,99.90
2023-05-09T01:27:47.148Z,99.90
2023-05-09T01:30:17.057Z,99.90
2023-05-09T01:32:50.447Z,99.90
2023-05-09T01:35:18.479Z,99.90
2023-05-09T01:37:50.693Z,99.90
2023-05-09T01:40:21.712Z,99.90
2023-05-09T01:43:05.914Z,99.90
2023-05-09T01:45:34.487Z,99.90
2023-05-09T01:48:02.816Z,99.90
2023-05-09T01:50:30.906Z,99.90
2023-05-09T01:52:59.821Z,99.90
2023-05-09T01:55:29.135Z,99.90
2023-05-09T01:57:58.900Z,99.90
2023-05-09T02:00:27.247Z,99.90
2023-05-09T02:02:55.973Z,99.90
2023-05-09T02:05:27.641Z,99.90
2023-05-09T02:07:58.619Z,99.90
2023-05-09T02:10:28.322Z,99.90
2023-05-09T02:12:56.806Z,99.90
2023-05-09T02:15:24.796Z,99.90
2023-05-09T02:17:52.410Z,99.90
2023-05-09T02:20:19.869Z,99.90
2023-05-09T02:22:48.013Z,99.90
2023-05-09T02:25:15.862Z,99.90
2023-05-09T02:27:45.775Z,99.90
2023-05-09T02:30:18.951Z,99.90
2023-05-09T02:32:49.225Z,99.90
2023-05-09T02:35:18.573Z,99.90
2023-05-09T02:37:47.667Z,99.90
2023-05-09T02:40:15.050Z,99.90
2023-05-09T02:42:42.448Z,99.90
2023-05-09T02:45:11.245Z,99.90
2023-05-09T02:47:40.224Z,99.90
2023-05-09T02:50:08.106Z,99.90
2023-05-09T02:52:37.481Z,99.90
2023-05-09T02:55:05.892Z,99.90
2023-05-09T02:57:36.680Z,99.90
2023-05-09T03:00:09.694Z,99.90
2023-05-09T03:02:37.923Z,99.90
2023-05-09T03:05:08.740Z,99.90
2023-05-09T03:07:37.030Z,99.90
2023-05-09T03:10:04.884Z,99.90
2023-05-09T03:12:32.421Z,99.90
2023-05-09T03:14:59.625Z,99.90
2023-05-09T03:17:27.867Z,99.90
2023-05-09T03:19:55.952Z,99.90
2023-05-09T03:22:29.066Z,99.90
2023-05-09T03:25:01.677Z,99.90
2023-05-09T03:27:29.062Z,99.90
2023-05-09T03:29:56.573Z,99.90
2023-05-09T03:32:24.021Z,99.90
2023-05-09T03:34:51.273Z,99.90
2023-05-09T03:37:18.655Z,99.90
2023-05-09T03:39:46.061Z,99.90
2023-05-09T03:42:13.606Z,99.90
2023-05-09T03:44:42.561Z,99.90
2023-05-09T03:47:10.027Z,99.90
2023-05-09T03:49:40.238Z,99.90
2023-05-09T03:52:09.221Z,99.90
2023-05-09T03:54:37.274Z,99.90
2023-05-09T03:57:05.944Z,99.90
2023-05-09T03:59:33.811Z,99.90
2023-05-09T04:02:02.188Z,99.90
2023-05-09T04:04:30.402Z,99.90
2023-05-09T04:06:57.984Z,99.90
2023-05-09T04:09:26.220Z,99.90
2023-05-09T04:11:55.187Z,99.90
2023-05-09T04:14:22.516Z,99.90
2023-05-09T04:16:49.916Z,99.90
2023-05-09T04:19:17.538Z,99.90
2023-05-09T04:21:44.896Z,99.90
2023-05-09T04:24:12.281Z,99.90
2023-05-09T04:26:43.499Z,99.90
2023-05-09T04:29:14.496Z,99.90
2023-05-09T04:31:44.687Z,99.90
2023-05-09T04:34:14.031Z,99.90
2023-05-09T04:36:41.815Z,99.90
2023-05-09T04:39:10.527Z,99.90
2023-05-09T04:41:40.354Z,99.90
2023-05-09T04:44:08.183Z,99.90
2023-05-09T04:46:35.514Z,99.90
2023-05-09T04:49:03.250Z,99.90
2023-05-09T04:51:30.679Z,99.90
2023-05-09T04:53:58.070Z,99.90
2023-05-09T04:56:31.258Z,99.90
2023-05-09T04:59:01.026Z,99.90
2023-05-09T05:01:29.469Z,99.90
2023-05-09T05:03:57.701Z,99.90
2023-05-09T05:06:25.044Z,99.90
2023-05-09T05:08:52.368Z,99.90
2023-05-09T05:11:20.743Z,99.90
2023-05-09T05:13:48.335Z,99.90
2023-05-09T05:16:16.129Z,99.90
2023-05-09T05:18:44.146Z,99.90
2023-05-09T05:21:11.930Z,99.90
2023-05-09T05:23:39.390Z,98.90
2023-05-09T05:26:06.903Z,97.60
2023-05-09T05:28:36.039Z,96.00
2023-05-09T05:31:04.493Z,95.50
2023-05-09T05:33:33.020Z,96.10
2023-05-09T05:36:01.362Z,93.80
2023-05-09T05:38:28.739Z,92.90
2023-05-09T05:40:57.766Z,93.50
2023-05-09T05:43:26.474Z,92.60
2023-05-09T05:45:54.351Z,90.80
2023-05-09T05:48:23.938Z,90.50
2023-05-09T05:50:53.108Z,88.90
2023-05-09T05:53:27.083Z,88.20
2023-05-09T05:55:54.542Z,88.50
2023-05-09T05:58:22.050Z,89.50
2023-05-09T06:00:51.436Z,88.50
2023-05-09T06:03:18.794Z,88.80
2023-05-09T06:05:58.485Z,88.90
2023-05-09T06:08:26.925Z,89.00
2023-05-09T06:10:54.547Z,88.70
2023-05-09T06:13:22.022Z,88.90
2023-05-09T06:16:01.916Z,90.10
2023-05-09T06:18:40.332Z,89.40
2023-05-09T06:21:08.105Z,88.00
2023-05-09T06:23:38.068Z,87.80
2023-05-09T06:26:07.776Z,87.80
2023-05-09T06:28:35.159Z,87.10
2023-05-09T06:31:02.556Z,87.10
2023-05-09T06:33:29.898Z,85.30
2023-05-09T06:35:57.280Z,84.40
2023-05-09T06:38:24.535Z,84.00
2023-05-09T06:40:51.782Z,84.10
2023-05-09T06:43:19.091Z,83.70
2023-05-09T06:45:46.419Z,83.60
2023-05-09T06:48:13.684Z,83.80
2023-05-09T06:50:41.144Z,84.20
2023-05-09T06:53:08.804Z,84.90
2023-05-09T06:55:36.358Z,84.30
2023-05-09T06:58:04.056Z,84.20
2023-05-09T07:00:31.323Z,84.10
2023-05-09T07:02:58.810Z,83.60
2023-05-09T07:05:26.350Z,83.10
2023-05-09T07:07:55.238Z,82.30
2023-05-09T07:10:23.061Z,82.00
2023-05-09T07:12:51.106Z,82.20
2023-05-09T07:15:32.502Z,82.50
2023-05-09T07:18:06.558Z,82.70
2023-05-09T07:20:34.136Z,84.20
2023-05-09T07:23:03.694Z,84.00
2023-05-09T07:25:31.096Z,83.40
2023-05-09T07:27:58.583Z,84.50
2023-05-09T07:30:26.125Z,84.10
2023-05-09T07:32:53.562Z,84.20
2023-05-09T07:35:21.493Z,84.10
2023-05-09T07:37:48.826Z,84.40
2023-05-09T07:40:16.938Z,84.00
2023-05-09T07:42:50.167Z,84.20
2023-05-09T07:45:19.420Z,85.10
2023-05-09T07:47:47.964Z,85.70
2023-05-09T07:50:15.459Z,87.00
2023-05-09T07:52:42.825Z,87.20
2023-05-09T07:55:10.339Z,86.90
2023-05-09T07:57:38.816Z,87.00
2023-05-09T08:00:07.204Z,87.30
2023-05-09T08:02:40.846Z,86.50
2023-05-09T08:05:09.385Z,86.50
2023-05-09T08:07:40.061Z,85.40
2023-05-09T08:10:08.644Z,84.10
2023-05-09T08:12:35.939Z,85.10
2023-05-09T08:15:03.494Z,85.20
2023-05-09T08:17:30.957Z,84.40
2023-05-09T08:19:58.239Z,85.00
2023-05-09T08:22:25.668Z,84.70
2023-05-09T08:24:52.984Z,84.00
2023-05-09T08:27:20.261Z,84.80
2023-05-09T08:29:47.645Z,85.60
2023-05-09T08:32:14.948Z,87.00
2023-05-09T08:34:42.204Z,86.00
2023-05-09T08:37:09.706Z,87.60
2023-05-09T08:39:37.067Z,85.90
2023-05-09T08:42:04.632Z,84.50
2023-05-09T08:44:32.449Z,85.20
2023-05-09T08:47:04.362Z,86.10
2023-05-09T08:49:31.945Z,84.40
2023-05-09T08:51:59.934Z,82.00
2023-05-09T08:54:27.912Z,82.00
2023-05-09T08:56:55.508Z,80.00
2023-05-09T08:59:22.939Z,79.10
2023-05-09T09:01:51.124Z,79.10
2023-05-09T09:04:18.363Z,78.60
2023-05-09T09:06:46.475Z,78.80
2023-05-09T09:09:15.555Z,79.30
2023-05-09T09:11:43.092Z,80.80
2023-05-09T09:14:18.194Z,81.30
2023-05-09T09:16:49.178Z,81.10
2023-05-09T09:19:18.704Z,80.10
2023-05-09T09:21:47.661Z,77.60
2023-05-09T09:24:18.649Z,74.90
2023-05-09T09:26:50.601Z,74.10
2023-05-09T09:29:19.690Z,74.40
2023-05-09T09:31:48.225Z,73.80
2023-05-09T09:34:22.040Z,73.10
2023-05-09T09:36:49.781Z,73.50
2023-05-09T09:39:16.949Z,71.90
2023-05-09T09:41:46.946Z,73.40
2023-05-09T09:44:23.731Z,72.30
2023-05-09T09:46:56.837Z,69.50
2023-05-09T09:49:25.978Z,67.90
2023-05-09T09:51:57.929Z,66.90
2023-05-09T09:54:28.645Z,67.20
2023-05-09T09:56:57.200Z,65.70
2023-05-09T09:59:26.912Z,65.80
2023-05-09T10:01:57.299Z,66.60
2023-05-09T10:04:25.632Z,66.00
2023-05-09T10:06:57.406Z,68.10
2023-05-09T10:09:25.098Z,68.60
2023-05-09T10:11:53.811Z,70.50
2023-05-09T10:14:23.822Z,70.00
2023-05-09T10:16:54.743Z,67.80
2023-05-09T10:19:23.095Z,69.20
2023-05-09T10:21:58.595Z,69.80
2023-05-09T10:24:35.660Z,68.50
2023-05-09T10:27:09.784Z,67.60
2023-05-09T10:29:41.598Z,64.90
2023-05-09T10:32:32.534Z,64.50
2023-05-09T10:35:06.358Z,64.10
2023-05-09T10:37:34.193Z,64.00
2023-05-09T10:40:05.548Z,64.10
2023-05-09T10:42:32.802Z,63.50
2023-05-09T10:45:01.282Z,63.50
2023-05-09T10:47:29.166Z,62.40
2023-05-09T10:49:57.713Z,63.00
2023-05-09T10:52:24.962Z,64.30
2023-05-09T10:55:04.132Z,64.70
2023-05-09T10:57:32.541Z,65.10
2023-05-09T11:00:03.085Z,65.30
2023-05-09T11:02:32.559Z,66.50
2023-05-09T11:05:20.500Z,66.90
2023-05-09T11:07:48.293Z,67.60
2023-05-09T11:10:18.046Z,68.30
2023-05-09T11:13:01.109Z,69.30
2023-05-09T11:15:29.839Z,70.20
2023-05-09T11:18:13.053Z,68.90
2023-05-09T11:20:45.341Z,67.90
2023-05-09T11:23:34.423Z,67.90
2023-05-09T11:26:07.069Z,66.30
2023-05-09T11:28:37.770Z,66.10
2023-05-09T11:31:16.308Z,65.40
2023-05-09T11:33:47.066Z,65.60
2023-05-09T11:36:31.902Z,63.70
2023-05-09T11:39:07.894Z,62.80
2023-05-09T11:41:52.323Z,63.10
2023-05-09T11:44:21.346Z,64.30
2023-05-09T11:46:49.805Z,64.30
2023-05-09T11:49:17.829Z,64.30
2023-05-09T11:51:45.120Z,64.40
2023-05-09T11:54:15.256Z,63.80
2023-05-09T11:56:42.864Z,63.10
2023-05-09T11:59:13.218Z,63.70
2023-05-09T12:01:47.226Z,64.90
2023-05-09T12:04:14.723Z,65.00
2023-05-09T12:06:48.254Z,65.10
2023-05-09T12:09:16.407Z,66.30
2023-05-09T12:11:50.268Z,65.30
2023-05-09T12:14:31.429Z,64.60
2023-05-09T12:16:58.993Z,64.80
2023-05-09T12:19:27.577Z,64.50
2023-05-09T12:22:02.655Z,65.80
2023-05-09T12:24:31.656Z,65.70
2023-05-09T12:27:00.238Z,65.80
2023-05-09T12:29:27.840Z,66.30
2023-05-09T12:31:58.833Z,65.10
2023-05-09T12:34:26.298Z,64.90
2023-05-09T12:36:53.861Z,62.60
2023-05-09T12:39:23.294Z,60.60
2023-05-09T12:42:01.097Z,58.80
2023-05-09T12:44:30.027Z,56.30
2023-05-09T12:47:06.702Z,55.40
2023-05-09T12:49:37.494Z,51.90
2023-05-09T12:52:05.128Z,50.80
2023-05-09T12:54:33.514Z,49.10
2023-05-09T12:57:01.253Z,46.30
2023-05-09T12:59:29.182Z,43.70
2023-05-09T13:01:58.396Z,47.00
2023-05-09T13:04:29.041Z,49.70
2023-05-09T13:06:58.777Z,51.40
2023-05-09T13:09:30.512Z,52.90
2023-05-09T13:11:57.854Z,53.90
2023-05-09T13:14:25.391Z,53.00
2023-05-09T13:16:52.841Z,51.70
2023-05-09T13:19:20.110Z,51.40
2023-05-09T13:21:48.114Z,52.40
2023-05-09T13:24:15.451Z,52.20
2023-05-09T13:26:42.784Z,54.20
2023-05-09T13:29:10.090Z,54.60
2023-05-09T13:31:37.412Z,54.80
2023-05-09T13:34:04.761Z,55.40
2023-05-09T13:36:32.739Z,52.10
2023-05-09T13:38:59.948Z,53.00
2023-05-09T13:41:27.547Z,54.20
2023-05-09T13:43:54.971Z,55.20
2023-05-09T13:46:22.616Z,55.10
2023-05-09T13:48:50.009Z,55.80
2023-05-09T13:51:17.666Z,56.10
2023-05-09T13:53:45.016Z,57.10
2023-05-09T13:56:12.547Z,57.30
2023-05-09T13:58:39.922Z,56.70
2023-05-09T14:01:07.734Z,58.00
2023-05-09T14:03:35.329Z,59.10
2023-05-09T14:06:02.812Z,59.50
2023-05-09T14:08:30.486Z,60.60
2023-05-09T14:10:57.873Z,61.10
2023-05-09T14:13:25.631Z,61.00
2023-05-09T14:15:53.151Z,59.30
2023-05-09T14:18:21.241Z,56.80
2023-05-09T14:20:48.863Z,55.40
2023-05-09T14:23:16.426Z,56.10
2023-05-09T14:25:43.772Z,55.80
2023-05-09T14:28:11.128Z,55.80
2023-05-09T14:30:38.466Z,56.80
2023-05-09T14:33:05.937Z,56.60
2023-05-09T14:35:34.491Z,56.30
2023-05-09T14:38:02.408Z,56.50
2023-05-09T14:40:32.357Z,55.80
2023-05-09T14:43:02.607Z,55.30
2023-05-09T14:45:31.666Z,55.10
2023-05-09T14:48:05.413Z,54.80
2023-05-09T14:50:33.545Z,55.60
2023-05-09T14:53:01.371Z,55.30
2023-05-09T14:55:28.738Z,56.20
2023-05-09T14:57:56.380Z,55.70
2023-05-09T15:00:26.254Z,55.20
2023-05-09T15:02:53.985Z,54.90
2023-05-09T15:05:21.345Z,54.70
2023-05-09T15:07:48.730Z,54.80
2023-05-09T15:10:16.343Z,54.40
2023-05-09T15:12:44.439Z,54.30
2023-05-09T15:15:25.358Z,54.40
2023-05-09T15:17:53.588Z,54.80
2023-05-09T15:20:21.228Z,54.30
2023-05-09T15:22:49.950Z,53.90
2023-05-09T15:25:17.880Z,52.80
2023-05-09T15:27:45.255Z,52.60
2023-05-09T15:30:13.260Z,52.50
2023-05-09T15:32:41.271Z,51.70
2023-05-09T15:35:08.964Z,51.70
2023-05-09T15:37:36.753Z,51.80
2023-05-09T15:40:04.544Z,51.70
2023-05-09T15:42:31.884Z,51.60
2023-05-09T15:44:59.275Z,51.00
2023-05-09T15:47:26.571Z,51.00
2023-05-09T15:49:54.148Z,51.10
2023-05-09T15:52:21.629Z,51.60
2023-05-09T15:54:49.113Z,51.40
2023-05-09T15:57:17.692Z,51.30
2023-05-09T15:59:45.085Z,51.50
2023-05-09T16:02:12.577Z,51.00
2023-05-09T16:04:39.908Z,51.10
2023-05-09T16:07:08.867Z,50.90
2023-05-09T16:09:37.426Z,51.00
2023-05-09T16:12:05.712Z,51.20
2023-05-09T16:14:33.365Z,51.40
2023-05-09T16:17:03.872Z,51.80
2023-05-09T16:19:31.871Z,51.40
2023-05-09T16:22:00.037Z,51.80
2023-05-09T16:24:27.364Z,51.90
2023-05-09T16:26:54.686Z,52.10
2023-05-09T16:29:23.130Z,52.50
2023-05-09T16:31:50.611Z,52.10
2023-05-09T16:34:19.288Z,52.50
2023-05-09T16:36:47.749Z,52.70
2023-05-09T16:39:23.575Z,53.00
2023-05-09T16:41:52.480Z,52.90
2023-05-09T16:44:20.044Z,53.10
2023-05-09T16:46:47.522Z,53.50
2023-05-09T16:49:18.004Z,53.30
2023-05-09T16:51:45.529Z,53.40
2023-05-09T16:54:13.100Z,53.60
2023-05-09T16:56:40.540Z,54.00
2023-05-09T16:59:08.629Z,54.00
2023-05-09T17:01:35.896Z,54.20
2023-05-09T17:04:06.865Z,54.30
2023-05-09T17:06:35.499Z,54.50
2023-05-09T17:09:04.538Z,54.20
2023-05-09T17:11:32.554Z,55.10
2023-05-09T17:14:01.700Z,54.90
2023-05-09T17:16:29.661Z,55.10
2023-05-09T17:18:59.435Z,55.60
2023-05-09T17:21:26.956Z,55.60
2023-05-09T17:23:54.356Z,56.30
2023-05-09T17:26:26.064Z,57.70
2023-05-09T17:28:53.501Z,57.70
2023-05-09T17:31:20.823Z,58.60
2023-05-09T17:33:48.226Z,59.70
2023-05-09T17:36:15.649Z,60.20
2023-05-09T17:38:43.332Z,60.70
2023-05-09T17:41:10.589Z,61.20
2023-05-09T17:43:38.081Z,61.60
2023-05-09T17:46:05.670Z,62.80
2023-05-09T17:48:33.015Z,63.50
2023-05-09T17:51:00.692Z,63.80
2023-05-09T17:53:28.043Z,63.40
2023-05-09T17:55:55.314Z,64.00
2023-05-09T17:58:24.122Z,64.30
2023-05-09T18:00:55.314Z,65.30
2023-05-09T18:03:25.529Z,65.80
2023-05-09T18:05:53.143Z,66.20
2023-05-09T18:08:20.530Z,66.90
2023-05-09T18:10:47.935Z,67.20
2023-05-09T18:13:15.663Z,67.40
2023-05-09T18:15:43.727Z,67.30
2023-05-09T18:18:12.838Z,68.00
2023-05-09T18:20:42.455Z,68.50
2023-05-09T18:23:10.578Z,69.40
2023-05-09T18:25:38.874Z,70.40
2023-05-09T18:28:09.319Z,70.50
2023-05-09T18:30:36.906Z,71.70
2023-05-09T18:33:04.322Z,72.10
2023-05-09T18:35:32.701Z,72.30
2023-05-09T18:38:00.112Z,71.40
2023-05-09T18:40:28.089Z,72.40
2023-05-09T18:42:55.424Z,73.80
2023-05-09T18:45:23.387Z,74.70
2023-05-09T18:47:51.382Z,75.20
2023-05-09T18:50:19.153Z,75.60
2023-05-09T18:52:46.518Z,75.30
2023-05-09T18:55:15.116Z,75.20
2023-05-09T18:57:42.646Z,75.20
2023-05-09T19:00:10.287Z,75.40
2023-05-09T19:02:38.429Z,75.40
2023-05-09T19:05:08.005Z,75.40
2023-05-09T19:07:35.917Z,75.60
2023-05-09T19:10:04.713Z,75.70
2023-05-09T19:12:32.570Z,75.10
2023-05-09T19:15:00.156Z,75.10
2023-05-09T19:17:27.614Z,76.00
2023-05-09T19:19:54.972Z,77.10
2023-05-09T19:22:22.256Z,76.70
2023-05-09T19:24:51.651Z,76.20
2023-05-09T19:27:19.307Z,76.10
2023-05-09T19:29:49.302Z,76.20
2023-05-09T19:32:20.913Z,76.50
2023-05-09T19:34:48.256Z,76.50
2023-05-09T19:37:15.704Z,76.70
2023-05-09T19:39:43.227Z,76.40
2023-05-09T19:42:10.487Z,75.60
2023-05-09T19:44:39.400Z,75.60
2023-05-09T19:47:10.512Z,75.70
2023-05-09T19:49:38.609Z,75.30
2023-05-09T19:52:06.649Z,74.70
2023-05-09T19:54:34.032Z,74.60
2023-05-09T19:57:02.028Z,74.70
2023-05-09T19:59:29.582Z,74.60
2023-05-09T20:01:57.186Z,74.50
2023-05-09T20:04:24.843Z,74.90
2023-05-09T20:06:52.092Z,75.00
2023-05-09T20:09:21.126Z,75.30
2023-05-09T20:11:48.787Z,75.70
2023-05-09T20:14:16.292Z,76.00
2023-05-09T20:16:44.214Z,76.00
2023-05-09T20:19:14.497Z,76.00
2023-05-09T20:21:42.500Z,75.30
2023-05-09T20:24:10.076Z,74.60
2023-05-09T20:26:37.742Z,74.90
2023-05-09T20:29:05.048Z,75.30
2023-05-09T20:31:55.779Z,75.70
2023-05-09T20:34:24.732Z,75.70
2023-05-09T20:36:57.746Z,75.90
2023-05-09T20:39:25.109Z,75.90
2023-05-09T20:41:52.743Z,76.30
2023-05-09T20:44:20.088Z,76.30
2023-05-09T20:46:47.798Z,76.40
2023-05-09T20:49:16.618Z,76.30
2023-05-09T20:51:47.448Z,76.50
2023-05-09T20:54:17.950Z,76.40
2023-05-09T20:56:45.433Z,76.60
2023-05-09T20:59:13.263Z,76.80
2023-05-09T21:01:44.134Z,77.30
2023-05-09T21:04:26.983Z,77.40
2023-05-09T21:06:59.528Z,77.50
2023-05-09T21:09:30.190Z,77.60
2023-05-09T21:12:00.162Z,77.50
2023-05-09T21:14:27.367Z,77.50
2023-05-09T21:16:58.503Z,77.50
2023-05-09T21:19:26.130Z,77.70
2023-05-09T21:22:01.224Z,77.60
2023-05-09T21:24:28.615Z,77.20
2023-05-09T21:26:56.094Z,77.60
2023-05-09T21:29:26.679Z,77.80
2023-05-09T21:32:01.479Z,77.70
2023-05-09T21:34:46.038Z,77.60
2023-05-09T21:37:15.854Z,77.60
2023-05-09T21:39:43.170Z,77.80
2023-05-09T21:42:19.228Z,78.00
2023-05-09T21:44:46.672Z,78.20
2023-05-09T21:47:15.829Z,78.10
2023-05-09T21:52:44.480Z,78.40
2023-05-09T21:55:15.440Z,78.80
2023-05-09T21:57:42.666Z,79.00
2023-05-09T22:00:18.781Z,79.30
2023-05-09T22:03:28.345Z,79.50
2023-05-09T22:05:56.126Z,79.40
2023-05-09T22:08:28.332Z,79.50
2023-05-09T22:10:55.882Z,79.60
2023-05-09T22:13:23.425Z,79.80
2023-05-09T22:15:50.692Z,79.80
2023-05-09T22:18:18.032Z,79.70
2023-05-09T22:20:45.328Z,79.00
2023-05-09T22:23:12.651Z,78.60
2023-05-09T22:25:39.859Z,78.70
2023-05-09T22:28:07.186Z,78.80
2023-05-09T22:30:34.995Z,78.80
2023-05-09T22:33:02.811Z,78.60
2023-05-09T22:35:30.202Z,78.60
2023-05-09T22:37:57.548Z,78.40
2023-05-09T22:40:24.817Z,78.70
2023-05-09T22:42:53.586Z,79.10
2023-05-09T22:45:21.339Z,79.30
2023-05-09T22:47:48.864Z,79.30
2023-05-09T22:50:16.485Z,79.60
2023-05-09T22:52:43.965Z,80.00
2023-05-09T22:55:11.546Z,80.30
2023-05-09T22:57:40.462Z,80.50
2023-05-09T23:00:08.333Z,80.70
2023-05-09T23:02:35.795Z,80.80
2023-05-09T23:05:09.070Z,81.30
2023-05-09T23:07:36.434Z,81.40
2023-05-09T23:10:04.621Z,81.70
2023-05-09T23:12:31.916Z,81.90
2023-05-09T23:14:59.234Z,81.90
2023-05-09T23:17:26.712Z,81.90
2023-05-09T23:19:54.007Z,81.10
2023-05-09T23:22:21.397Z,80.70
2023-05-09T23:24:48.647Z,79.90
2023-05-09T23:27:16.006Z,78.30
2023-05-09T23:29:43.685Z,77.20
2023-05-09T23:32:11.703Z,76.80
2023-05-09T23:34:40.724Z,75.90
2023-05-09T23:37:08.670Z,76.00
2023-05-09T23:39:35.906Z,76.00
2023-05-09T23:42:04.310Z,76.30
2023-05-09T23:44:31.770Z,76.40
2023-05-09T23:46:59.166Z,76.70
2023-05-09T23:49:28.187Z,76.70
2023-05-09T23:51:55.543Z,76.50
2023-05-09T23:54:24.479Z,75.90
2023-05-09T23:56:52.119Z,75.80
2023-05-09T23:59:19.397Z,75.40
